createdAt,value
2019-03-08T00:00:57.224Z,6.88
2019-03-08T00:06:06.185Z,6.78
2019-03-08T00:11:15.023Z,6.57
2019-03-08T00:16:23.793Z,6.66
2019-03-08T00:21:32.559Z,6.52
2019-03-08T00:26:41.426Z,6.28
2019-03-08T00:31:51.703Z,6.25
2019-03-08T00:36:50.903Z,6.29
2019-03-08T00:41:59.984Z,6.21
2019-03-08T00:47:09.011Z,6.32
2019-03-08T00:52:18.817Z,6.31
2019-03-08T00:57:27.607Z,6.19
2019-03-08T01:02:39.642Z,6.24
2019-03-08T01:07:38.830Z,5.89
2019-03-08T01:12:47.687Z,6.12
2019-03-08T01:17:56.583Z,5.52
2019-03-08T01:28:11.890Z,5.63
2019-03-08T01:33:20.841Z,5.78
2019-03-08T01:38:29.727Z,5.72
2019-03-08T01:43:38.523Z,5.64
2019-03-08T01:48:47.303Z,5.61
2019-03-08T01:59:02.924Z,5.58
2019-03-08T02:09:07.285Z,5.33
2019-03-08T02:14:14.608Z,5.40
2019-03-08T02:19:23.425Z,5.38
2019-03-08T02:24:32.106Z,5.33
2019-03-08T02:29:39.886Z,5.51
2019-03-08T02:34:49.251Z,5.61
2019-03-08T02:39:57.953Z,5.36
2019-03-08T02:45:06.825Z,5.03
2019-03-08T02:50:15.658Z,5.49
2019-03-08T02:55:24.560Z,5.25
2019-03-08T03:00:32.116Z,5.20
2019-03-08T03:05:40.908Z,4.96
2019-03-08T03:10:49.622Z,5.06
2019-03-08T03:15:58.923Z,4.90
2019-03-08T03:21:07.357Z,5.19
2019-03-08T03:26:16.685Z,4.80
2019-03-08T03:31:25.462Z,4.89
2019-03-08T03:36:34.325Z,4.97
2019-03-08T03:41:41.703Z,4.89
2019-03-08T03:46:50.482Z,5.07
2019-03-08T03:51:57.662Z,4.91
2019-03-08T03:57:06.976Z,4.54
2019-03-08T04:02:15.769Z,4.60
2019-03-08T04:07:24.612Z,4.68
2019-03-08T04:12:33.276Z,4.77
2019-03-08T04:17:42.119Z,4.64
2019-03-08T04:22:49.455Z,4.53
2019-03-08T04:27:58.496Z,4.70
2019-03-08T04:33:07.289Z,4.43
2019-03-08T04:38:16.112Z,4.67
2019-03-08T04:43:24.803Z,4.51
2019-03-08T04:48:33.660Z,4.44
2019-03-08T04:53:42.355Z,4.37
2019-03-08T04:58:51.137Z,4.61
2019-03-08T05:03:59.955Z,4.52
2019-03-08T05:09:09.263Z,4.23
2019-03-08T05:14:18.257Z,4.62
2019-03-08T05:19:27.850Z,4.29
2019-03-08T05:24:34.778Z,4.31
2019-03-08T05:29:44.009Z,4.31
2019-03-08T05:34:51.288Z,4.59
2019-03-08T05:40:00.395Z,4.22
2019-03-08T05:45:08.918Z,4.53
2019-03-08T05:50:16.498Z,4.14
2019-03-08T05:55:25.261Z,4.15
2019-03-08T06:00:35.105Z,3.99
2019-03-08T06:05:42.287Z,4.14
2019-03-08T06:10:51.257Z,4.16
2019-03-08T06:16:00.041Z,4.21
2019-03-08T06:21:08.806Z,4.12
2019-03-08T06:26:16.231Z,4.04
2019-03-08T06:31:25.351Z,4.17
2019-03-08T06:36:34.053Z,3.97
2019-03-08T06:41:42.809Z,4.05
2019-03-08T06:46:51.605Z,4.08
2019-03-08T06:52:01.037Z,4.18
2019-03-08T06:57:08.744Z,4.28
2019-03-08T07:02:18.209Z,4.54
2019-03-08T07:07:27.168Z,4.27
2019-03-08T07:12:36.083Z,4.26
2019-03-08T07:22:45.677Z,4.31
2019-03-08T07:27:54.481Z,4.30
2019-03-08T07:33:03.209Z,4.33
2019-03-08T07:38:11.995Z,4.26
2019-03-08T07:43:20.931Z,4.52
2019-03-08T07:48:30.055Z,4.06
2019-03-08T07:53:37.389Z,4.36
2019-03-08T08:03:51.983Z,4.62
2019-03-08T08:09:00.897Z,4.27
2019-03-08T08:14:09.930Z,4.56
2019-03-08T08:19:18.602Z,4.34
2019-03-08T08:24:27.428Z,5.68
2019-03-08T08:29:36.161Z,10.69
2019-03-08T08:34:45.170Z,11.54
2019-03-08T08:39:52.578Z,12.09
2019-03-08T08:45:01.344Z,12.66
2019-03-08T08:50:10.011Z,11.97
2019-03-08T08:55:17.460Z,11.80
2019-03-08T09:00:24.671Z,11.67
2019-03-08T09:05:31.917Z,11.12
2019-03-08T09:10:39.135Z,10.94
2019-03-08T09:15:46.357Z,10.72
2019-03-08T09:20:55.092Z,10.43
2019-03-08T09:26:03.767Z,10.68
2019-03-08T09:31:11.229Z,10.18
2019-03-08T09:36:19.899Z,10.15
2019-03-08T09:41:28.785Z,10.16
2019-03-08T09:46:36.004Z,9.60
2019-03-08T09:51:43.306Z,9.91
2019-03-08T09:56:52.378Z,9.58
2019-03-08T10:01:59.574Z,9.24
2019-03-08T10:07:07.309Z,8.89
2019-03-08T10:12:16.127Z,9.07
2019-03-08T10:17:24.989Z,8.72
2019-03-08T10:22:33.800Z,8.87
2019-03-08T10:27:42.679Z,8.77
2019-03-08T10:32:51.352Z,8.93
2019-03-08T10:38:00.476Z,8.66
2019-03-08T10:43:09.129Z,8.90
2019-03-08T10:48:18.231Z,8.50
2019-03-08T10:53:26.903Z,8.15
2019-03-08T10:58:35.701Z,8.55
2019-03-08T11:03:44.364Z,8.82
2019-03-08T11:08:53.164Z,9.25
2019-03-08T11:14:02.124Z,9.84
2019-03-08T11:19:09.945Z,9.74
2019-03-08T11:24:18.603Z,10.48
2019-03-08T11:29:27.519Z,10.48
2019-03-08T11:34:36.847Z,11.23
2019-03-08T11:39:46.803Z,11.61
2019-03-08T11:44:55.590Z,12.99
2019-03-08T11:50:04.623Z,14.70
2019-03-08T11:55:13.316Z,16.03
2019-03-08T12:00:22.370Z,17.66
2019-03-08T12:05:31.054Z,17.73
2019-03-08T12:10:39.957Z,17.88
2019-03-08T12:15:48.600Z,17.13
2019-03-08T12:20:57.670Z,17.94
2019-03-08T12:26:06.367Z,16.93
2019-03-08T12:31:15.118Z,17.26
2019-03-08T12:36:23.842Z,16.21
2019-03-08T12:41:32.830Z,15.75
2019-03-08T12:46:42.377Z,16.73
2019-03-08T12:51:51.146Z,16.95
2019-03-08T12:56:59.975Z,16.96
2019-03-08T13:02:08.011Z,16.77
2019-03-08T13:07:17.240Z,17.04
2019-03-08T13:12:26.698Z,17.89
2019-03-08T13:17:35.492Z,17.82
2019-03-08T13:22:44.425Z,18.27
2019-03-08T13:27:53.160Z,19.10
2019-03-08T13:33:01.929Z,18.98
2019-03-08T13:43:12.519Z,19.54
2019-03-08T13:48:21.249Z,19.68
2019-03-08T13:53:28.503Z,20.80
2019-03-08T13:58:35.705Z,20.69
2019-03-08T14:03:44.464Z,20.56
2019-03-08T14:08:53.263Z,20.85
2019-03-08T14:14:01.935Z,21.15
2019-03-08T14:19:10.729Z,20.84
2019-03-08T14:24:19.477Z,20.56
2019-03-08T14:29:26.715Z,20.90
2019-03-08T14:34:35.532Z,19.87
2019-03-08T14:39:45.558Z,20.13
2019-03-08T14:44:52.673Z,19.48
2019-03-08T14:50:01.436Z,19.70
2019-03-08T14:55:10.257Z,18.94
2019-03-08T15:00:17.510Z,19.10
2019-03-08T15:05:26.362Z,19.14
2019-03-08T15:10:39.504Z,18.29
2019-03-08T15:15:46.449Z,17.89
2019-03-08T15:20:45.885Z,17.92
2019-03-08T15:25:54.936Z,17.81
2019-03-08T15:31:03.568Z,16.95
2019-03-08T15:36:12.278Z,17.34
2019-03-08T15:41:21.470Z,16.38
2019-03-08T15:46:29.215Z,16.68
2019-03-08T15:51:38.159Z,16.19
2019-03-08T15:56:45.376Z,16.04
2019-03-08T16:01:52.640Z,15.27
2019-03-08T16:07:01.343Z,15.13
2019-03-08T16:12:09.985Z,15.01
2019-03-08T16:17:18.700Z,15.57
2019-03-08T16:22:28.503Z,14.63
2019-03-08T16:27:37.731Z,14.70
2019-03-08T16:32:43.884Z,14.53
2019-03-08T16:37:52.786Z,14.51
2019-03-08T16:43:03.874Z,14.73
2019-03-08T16:48:09.854Z,13.88
2019-03-08T16:53:18.601Z,13.87
2019-03-08T16:58:27.269Z,13.60
2019-03-08T17:03:35.929Z,13.01
2019-03-08T17:08:44.610Z,13.02
2019-03-08T17:13:53.333Z,12.98
2019-03-08T17:19:11.422Z,12.56
2019-03-08T17:24:11.494Z,12.43
2019-03-08T17:29:20.305Z,12.23
2019-03-08T17:34:28.960Z,12.50
2019-03-08T17:39:37.704Z,12.42
2019-03-08T17:44:45.198Z,11.93
2019-03-08T17:49:53.852Z,12.06
2019-03-08T17:55:02.583Z,11.79
2019-03-08T18:00:11.320Z,11.58
2019-03-08T18:05:19.987Z,11.18
2019-03-08T18:10:28.694Z,11.67
2019-03-08T18:15:36.202Z,11.00
2019-03-08T18:20:44.853Z,11.14
2019-03-08T18:25:54.128Z,10.67
2019-03-08T18:31:03.072Z,10.76
2019-03-08T18:36:11.730Z,9.86
2019-03-08T18:41:20.524Z,9.42
2019-03-08T18:46:29.202Z,9.91
2019-03-08T18:51:37.949Z,9.34
2019-03-08T18:56:46.700Z,9.37
2019-03-08T19:01:55.485Z,9.52
2019-03-08T19:07:04.333Z,9.39
2019-03-08T19:12:13.917Z,9.88
2019-03-08T19:17:22.601Z,9.21
2019-03-08T19:22:32.260Z,9.51
2019-03-08T19:27:41.194Z,9.05
2019-03-08T19:32:50.246Z,9.13
2019-03-08T19:37:58.539Z,9.28
2019-03-08T19:43:07.372Z,9.07
2019-03-08T19:48:16.004Z,9.07
2019-03-08T19:53:25.045Z,9.02
2019-03-08T19:58:33.647Z,8.74
2019-03-08T20:03:43.233Z,8.75
2019-03-08T20:08:52.169Z,8.75
2019-03-08T20:14:01.900Z,8.57
2019-03-08T20:19:10.631Z,8.66
2019-03-08T20:24:19.760Z,8.70
2019-03-08T20:29:29.193Z,8.44
2019-03-08T20:34:38.276Z,8.72
2019-03-08T20:39:46.973Z,8.38
2019-03-08T20:44:55.757Z,8.69
2019-03-08T20:50:02.929Z,8.54
2019-03-08T20:55:10.180Z,8.25
2019-03-08T21:00:18.973Z,8.52
2019-03-08T21:05:27.687Z,8.48
2019-03-08T21:10:37.029Z,8.54
2019-03-08T21:15:46.526Z,8.40
2019-03-08T21:20:55.398Z,8.51
2019-03-08T21:26:04.200Z,8.66
2019-03-08T21:31:12.938Z,8.43
2019-03-08T21:36:22.166Z,8.29
2019-03-08T21:41:30.981Z,7.98
2019-03-08T21:46:39.768Z,8.20
2019-03-08T21:51:48.442Z,7.81
2019-03-08T21:56:57.227Z,7.58
2019-03-08T22:02:06.058Z,7.78
2019-03-08T22:07:15.019Z,7.71
2019-03-08T22:12:22.217Z,7.84
2019-03-08T22:17:31.053Z,8.42
2019-03-08T22:22:40.152Z,8.23
2019-03-08T22:27:48.913Z,8.09
2019-03-08T22:32:57.678Z,7.93
2019-03-08T22:38:06.408Z,7.93
2019-03-08T22:43:15.275Z,8.04
2019-03-08T22:48:24.339Z,8.38
2019-03-08T22:53:32.329Z,8.51
2019-03-08T22:58:41.067Z,7.94
2019-03-08T23:03:49.885Z,7.79
2019-03-08T23:08:58.610Z,8.27
2019-03-08T23:14:07.275Z,8.08
2019-03-08T23:19:15.953Z,7.89
2019-03-08T23:24:24.732Z,8.19
2019-03-08T23:29:33.434Z,7.94
2019-03-08T23:34:42.102Z,7.89
2019-03-08T23:39:51.122Z,7.98
2019-03-08T23:44:59.820Z,7.84
2019-03-08T23:50:08.546Z,7.93
2019-03-08T23:55:15.777Z,7.72
